Time;durP1;ratioP1;P1;durP2;ratioP2;P2;SDS_P1;SDS_P2;PMS_P1;PMS_P2;Temp;Humidity;BMP_temperature;BMP_pressure;BME280_temperature;BME280_humidity;BME280_pressure;Samples;Min_cycle;Max_cycle;Signal;HPM_P1;HPM_P2
2022/04/30 00:02:01;;;;;;;;;;;;;;;;;;4985130;28;19972;-76
2022/04/30 00:04:27;;;;;;;;;;;;;;;;;;4994312;28;19930;-76
2022/04/30 00:06:53;;;;;;;;;;;;;;;;;;5012278;28;20890;-76
2022/04/30 00:09:19;;;;;;;;;;;;;;;;;;4990444;28;20050;-76
2022/04/30 00:11:45;;;;;;;;;;;;;;;;;;5013365;28;20438;-80
2022/04/30 00:14:11;;;;;;;;;;;;;;;;;;4988262;28;19929;-79
2022/04/30 00:16:38;;;;;;;;;;;;;;;;;;5006720;28;20271;-76
2022/04/30 00:19:06;;;;;;;;;;;;;;;;;;4975087;28;20391;-75
2022/04/30 00:21:32;;;;;;;;;;;;;;;;;;4988470;28;19926;-75
2022/04/30 00:23:58;;;;;;;;;;;;;;;;;;5009924;28;19976;-81
2022/04/30 00:26:24;;;;;;;;;;;;;;;;;;5008437;28;19976;-76
2022/04/30 00:28:52;;;;;;;;;;;;;;;;;;4989568;28;19921;-75
2022/04/30 00:31:18;;;;;;;;;;;;;;;;;;4987426;28;20011;-78
2022/04/30 00:33:48;;;;;;;;;;;;;;;;;;5007133;28;20008;-76
2022/04/30 00:36:14;;;;;;;;;;;;;;;;;;4995845;28;19926;-79
2022/04/30 00:38:40;;;;;;;;;;;;;;;;;;4971727;28;19937;-76
2022/04/30 00:41:06;;;;;;;;;;;;;;;;;;4995335;28;20331;-76
2022/04/30 00:43:32;;;;;;;;;;;;;;;;;;5009915;28;20004;-76
2022/04/30 00:45:58;;;;;;;;;;;;;;;;;;4996116;28;19921;-81
2022/04/30 00:48:24;;;;;;;;;;;;;;;;;;4991914;28;20325;-77
2022/04/30 00:50:50;;;;;;;;;;;;;;;;;;5011973;28;19930;-82
2022/04/30 00:53:19;;;;;;;;;;;;;;;;;;4986703;28;19929;-77
2022/04/30 00:55:45;;;;;;;;;;;;;;;;;;5013487;28;19961;-78
2022/04/30 00:58:11;;;;;;;;;;;;;;;;;;4987772;28;19929;-77
2022/04/30 01:00:40;;;;;;;;;;;;;;;;;;4994339;28;19983;-78
2022/04/30 01:03:06;;;;;;;;;;;;;;;;;;4986100;28;19975;-77
2022/04/30 01:05:33;;;;;;;;;;;;;;;;;;4991000;28;19921;-76
2022/04/30 01:08:00;;;;;;;;;;;;;;;;;;5006226;28;19925;-81
2022/04/30 01:10:26;;;;;;;;;;;;;;;;;;4998686;28;19925;-77
2022/04/30 01:12:52;;;;;;;;;;;;;;;;;;4989956;28;19927;-76
2022/04/30 01:15:18;;;;;;;;;;;;;;;;;;4976460;28;19995;-76
2022/04/30 01:17:44;;;;;;;;;;;;;;;;;;5014643;28;20368;-76
2022/04/30 01:20:10;;;;;;;;;;;;;;;;;;5018130;28;19935;-77
2022/04/30 01:22:36;;;;;;;;;;;;;;;;;;4975202;28;19921;-76
2022/04/30 01:25:02;;;;;;;;;;;;;;;;;;4992001;28;19921;-80
2022/04/30 01:27:28;;;;;;;;;;;;;;;;;;5013428;28;19976;-76
2022/04/30 01:29:54;;;;;;;;;;;;;;;;;;5019003;28;21448;-80
2022/04/30 01:37:50;;;;;;;;;;;;;;;;;;4992646;28;19921;-76
2022/04/30 01:40:16;;;;;;;;;;;;;;;;;;4998022;28;19926;-76
2022/04/30 01:42:42;;;;;;;;;;;;;;;;;;4973909;28;19936;-76
2022/04/30 01:45:08;;;;;;;;;;;;;;;;;;4994750;28;20011;-76
2022/04/30 01:47:34;;;;;;;;;;;;;;;;;;5016156;28;19933;-76
2022/04/30 01:50:00;;;;;;;;;;;;;;;;;;5000798;28;19925;-81
2022/04/30 01:52:26;;;;;;;;;;;;;;;;;;5012055;28;19932;-79
2022/04/30 01:54:52;;;;;;;;;;;;;;;;;;4977385;28;20451;-76
2022/04/30 01:57:26;;;;;;;;;;;;;;;;;;4995120;28;19929;-76
2022/04/30 01:59:52;;;;;;;;;;;;;;;;;;4976307;28;20421;-76
2022/04/30 02:02:18;;;;;;;;;;;;;;;;;;4984051;28;20008;-76
2022/04/30 02:04:44;;;;;;;;;;;;;;;;;;4990872;28;20055;-76
2022/04/30 02:07:10;;;;;;;;;;;;;;;;;;5019523;28;20281;-76
2022/04/30 02:09:36;;;;;;;;;;;;;;;;;;4996251;28;19997;-76
2022/04/30 02:12:02;;;;;;;;;;;;;;;;;;5009848;28;19934;-80
2022/04/30 02:14:31;;;;;;;;;;;;;;;;;;4994641;28;19946;-76
2022/04/30 02:16:57;;;;;;;;;;;;;;;;;;4991962;28;19928;-75
2022/04/30 02:19:23;;;;;;;;;;;;;;;;;;5011103;28;20010;-75
2022/04/30 02:21:49;;;;;;;;;;;;;;;;;;5015233;28;19926;-76
2022/04/30 02:24:15;;;;;;;;;;;;;;;;;;4989016;28;19928;-75
2022/04/30 02:26:41;;;;;;;;;;;;;;;;;;5000182;28;19925;-77
2022/04/30 02:29:08;;;;;;;;;;;;;;;;;;5010484;28;19928;-75
2022/04/30 02:31:35;;;;;;;;;;;;;;;;;;5019070;28;19945;-78
2022/04/30 02:34:01;;;;;;;;;;;;;;;;;;4972342;28;20361;-76
2022/04/30 02:36:27;;;;;;;;;;;;;;;;;;5013857;28;19922;-76
2022/04/30 02:38:54;;;;;;;;;;;;;;;;;;4989945;28;19928;-76
2022/04/30 02:41:21;;;;;;;;;;;;;;;;;;5011375;28;19969;-78
2022/04/30 02:43:47;;;;;;;;;;;;;;;;;;4990060;28;20377;-76
2022/04/30 02:46:14;;;;;;;;;;;;;;;;;;4988491;28;19922;-76
2022/04/30 02:48:39;;;;;;;;;;;;;;;;;;5012650;28;20362;-79
2022/04/30 02:51:07;;;;;;;;;;;;;;;;;;4988291;28;19936;-81
2022/04/30 02:53:33;;;;;;;;;;;;;;;;;;4990774;28;19925;-75
2022/04/30 02:55:59;;;;;;;;;;;;;;;;;;4993963;28;19921;-76
2022/04/30 03:01:10;;;;;;;;;;;;;;;;;;4988300;28;20380;-75
2022/04/30 03:03:36;;;;;;;;;;;;;;;;;;4992040;28;20353;-76
2022/04/30 03:06:02;;;;;;;;;;;;;;;;;;5013524;28;19925;-76
2022/04/30 03:08:28;;;;;;;;;;;;;;;;;;5017374;28;19933;-76
2022/04/30 03:10:54;;;;;;;;;;;;;;;;;;5007343;28;19944;-76
2022/04/30 03:13:20;;;;;;;;;;;;;;;;;;4974187;28;20692;-79
2022/04/30 03:15:46;;;;;;;;;;;;;;;;;;4972176;28;19928;-76
2022/04/30 03:23:32;;;;;;;;;;;;;;;;;;4991520;28;20024;-75
2022/04/30 03:25:58;;;;;;;;;;;;;;;;;;4993165;28;20001;-75
2022/04/30 03:28:23;;;;;;;;;;;;;;;;;;4974043;28;19921;-75
2022/04/30 03:30:49;;;;;;;;;;;;;;;;;;5006489;28;19922;-75
2022/04/30 03:33:15;;;;;;;;;;;;;;;;;;5007954;28;19928;-75
2022/04/30 03:35:42;;;;;;;;;;;;;;;;;;4988266;28;19933;-77
2022/04/30 03:38:08;;;;;;;;;;;;;;;;;;5013142;28;19921;-80
2022/04/30 03:40:40;;;;;;;;;;;;;;;;;;4988180;28;19922;-76
2022/04/30 03:43:06;;;;;;;;;;;;;;;;;;4989932;28;19929;-75
2022/04/30 03:45:32;;;;;;;;;;;;;;;;;;4975135;28;19925;-75
2022/04/30 03:47:58;;;;;;;;;;;;;;;;;;5012458;28;19935;-76
2022/04/30 03:50:24;;;;;;;;;;;;;;;;;;4987433;28;20025;-76
2022/04/30 03:52:50;;;;;;;;;;;;;;;;;;4989130;28;19921;-75
2022/04/30 03:55:16;;;;;;;;;;;;;;;;;;4989656;28;19921;-75
2022/04/30 03:57:42;;;;;;;;;;;;;;;;;;5015574;28;19921;-76
2022/04/30 04:00:09;;;;;;;;;;;;;;;;;;5016553;28;19969;-79
2022/04/30 04:02:36;;;;;;;;;;;;;;;;;;4988978;28;19922;-75
2022/04/30 04:05:02;;;;;;;;;;;;;;;;;;4996824;28;19925;-76
2022/04/30 04:07:30;;;;;;;;;;;;;;;;;;4988636;28;19927;-76
2022/04/30 04:09:56;;;;;;;;;;;;;;;;;;4999722;28;19930;-79
2022/04/30 04:12:22;;;;;;;;;;;;;;;;;;4986984;28;19925;-76
2022/04/30 04:17:39;;;;;;;;;;;;;;;;;;4987294;28;19922;-75
2022/04/30 04:20:05;;;;;;;;;;;;;;;;;;5000009;28;19921;-76
2022/04/30 04:22:31;;;;;;;;;;;;;;;;;;4971754;28;20152;-76
2022/04/30 04:27:42;;;;;;;;;;;;;;;;;;4988471;28;20016;-75
2022/04/30 04:30:08;;;;;;;;;;;;;;;;;;4996782;28;20507;-78
2022/04/30 04:32:34;;;;;;;;;;;;;;;;;;4993263;28;20364;-75
2022/04/30 04:35:00;;;;;;;;;;;;;;;;;;5017892;28;19933;-79
2022/04/30 04:37:27;;;;;;;;;;;;;;;;;;4972845;28;19929;-75
2022/04/30 04:39:53;;;;;;;;;;;;;;;;;;4995945;28;19933;-80
2022/04/30 04:42:19;;;;;;;;;;;;;;;;;;4969423;28;19921;-76
2022/04/30 04:44:45;;;;;;;;;;;;;;;;;;5012268;28;20380;-76
2022/04/30 04:47:11;;;;;;;;;;;;;;;;;;5005824;28;19930;-77
2022/04/30 04:49:37;;;;;;;;;;;;;;;;;;5012407;28;20154;-79
2022/04/30 04:52:03;;;;;;;;;;;;;;;;;;4986769;28;20364;-77
2022/04/30 04:54:29;;;;;;;;;;;;;;;;;;5011454;28;19947;-76
2022/04/30 04:56:55;;;;;;;;;;;;;;;;;;4971494;28;20353;-75
2022/04/30 04:59:21;;;;;;;;;;;;;;;;;;5013399;28;20396;-76
2022/04/30 05:01:48;;;;;;;;;;;;;;;;;;5007102;28;20878;-77
2022/04/30 05:04:14;;;;;;;;;;;;;;;;;;5012401;28;20404;-81
2022/04/30 05:06:40;;;;;;;;;;;;;;;;;;4987284;28;19922;-76
2022/04/30 05:09:05;;;;;;;;;;;;;;;;;;4996562;28;19922;-76
2022/04/30 05:11:31;;;;;;;;;;;;;;;;;;4986356;28;19929;-81
2022/04/30 05:13:57;;;;;;;;;;;;;;;;;;4988220;28;19921;-76
2022/04/30 05:16:24;;;;;;;;;;;;;;;;;;5007889;28;19925;-76
2022/04/30 05:18:50;;;;;;;;;;;;;;;;;;4993635;28;19926;-76
2022/04/30 05:21:15;;;;;;;;;;;;;;;;;;5003718;28;19929;-82
2022/04/30 05:23:41;;;;;;;;;;;;;;;;;;4968736;28;20281;-77
2022/04/30 05:26:07;;;;;;;;;;;;;;;;;;5010771;28;19968;-74
2022/04/30 05:28:33;;;;;;;;;;;;;;;;;;5009714;28;19921;-74
2022/04/30 05:30:59;;;;;;;;;;;;;;;;;;4982709;28;19932;-77
2022/04/30 05:33:26;;;;;;;;;;;;;;;;;;4971003;28;19930;-79
2022/04/30 05:35:52;;;;;;;;;;;;;;;;;;4984669;28;19976;-75
2022/04/30 05:38:18;;;;;;;;;;;;;;;;;;4972414;28;19922;-83
2022/04/30 05:40:44;;;;;;;;;;;;;;;;;;5008434;28;20021;-80
2022/04/30 05:43:10;;;;;;;;;;;;;;;;;;4990037;28;20380;-76
2022/04/30 05:45:36;;;;;;;;;;;;;;;;;;4993628;28;20367;-77
2022/04/30 05:48:02;;;;;;;;;;;;;;;;;;5009092;28;19968;-80
2022/04/30 05:50:28;;;;;;;;;;;;;;;;;;5007453;28;19921;-75
2022/04/30 05:52:54;;;;;;;16.48;11.48;;;;;;;;;;5001278;28;19921;-76
2022/04/30 05:55:20;;;;;;;16.25;10.20;;;;;;;;;;4971362;28;20046;-82
2022/04/30 05:57:46;;;;;;;12.45;10.02;;;;;;;;;;4955914;28;20140;-73
2022/04/30 06:00:12;;;;;;;17.48;10.32;;;;;;;;;;5004852;28;20077;-75
2022/04/30 06:02:38;;;;;;;13.63;10.85;;;;;;;;;;4996439;28;20099;-74
2022/04/30 06:05:05;;;;;;;17.30;10.70;;;;;;;;;;4993940;28;20046;-75
2022/04/30 06:07:31;;;;;;;21.77;10.35;;;;;;;;;;4978498;28;20042;-78
2022/04/30 06:09:57;;;;;;;15.18;9.70;;;;;;;;;;4989540;28;20136;-74
2022/04/30 06:12:23;;;;;;;10.90;9.52;;;;;;;;;;4992932;28;20038;-76
2022/04/30 06:14:49;;;;;;;14.05;10.38;;;;;;;;;;4993543;28;20060;-76
2022/04/30 06:17:15;;;;;;;13.93;10.88;;;;;;;;;;4976255;28;20087;-76
2022/04/30 06:19:41;;;;;;;16.67;10.73;;;;;;;;;;4975412;28;20115;-80
2022/04/30 06:22:07;;;;;;;14.55;9.77;;;;;;;;;;5000065;28;20069;-75
2022/04/30 06:24:33;;;;;;;14.85;10.07;;;;;;;;;;4978265;28;20045;-76
2022/04/30 06:26:59;;;;;;;14.85;9.15;;;;;;;;;;4956399;28;21413;-74
2022/04/30 06:29:25;;;;;;;15.77;10.60;;;;;;;;;;5010170;28;20072;-75
2022/04/30 06:31:52;;;;;;;13.43;9.27;;;;;;;;;;4993937;28;20469;-75
2022/04/30 06:34:18;;;;;;;12.27;8.63;;;;;;;;;;4981277;28;20490;-76
2022/04/30 06:36:44;;;;;;;16.80;9.05;;;;;;;;;;4989811;28;20060;-76
2022/04/30 06:39:11;;;;;;;17.70;9.48;;;;;;;;;;4977552;28;20053;-76
2022/04/30 06:41:37;;;;;;;12.50;9.13;;;;;;;;;;4968739;28;20398;-75
2022/04/30 06:44:03;;;;;;;11.85;8.13;;;;;;;;;;4978230;28;20376;-73
2022/04/30 06:46:29;;;;;;;17.50;7.68;;;;;;;;;;5010367;28;20056;-75
2022/04/30 06:48:55;;;;;;;13.07;8.45;;;;;;;;;;4992125;28;20084;-74
2022/04/30 06:51:21;;;;;;;11.85;7.50;;;;;;;;;;5008484;28;20322;-74
2022/04/30 06:59:16;;;;;;;14.70;8.50;;;;;;;;;;4979414;28;20088;-77
2022/04/30 07:02:01;;;;;;;15.45;9.85;;;;;;;;;;4993884;28;20111;-81
2022/04/30 07:04:29;;;;;;;19.35;8.35;;;;;;;;;;4964034;28;20124;-84
2022/04/30 07:06:55;;;;;;;16.38;7.60;;;;;;;;;;4990362;28;20050;-78
2022/04/30 07:09:21;;;;;;;12.90;7.25;;;;;;;;;;4992350;28;20077;-77
2022/04/30 07:11:48;;;;;;;11.93;7.45;;;;;;;;;;4995522;28;20053;-80
2022/04/30 07:14:14;;;;;;;17.30;8.00;;;;;;;;;;4975207;28;20046;-73
2022/04/30 07:16:40;;;;;;;14.00;7.70;;;;;;;;;;4971633;28;20113;-75
2022/04/30 07:19:06;;;;;;;15.38;11.88;;;;;;;;;;4971044;28;20532;-76
2022/04/30 07:21:33;;;;;;;16.98;9.15;;;;;;;;;;4994030;28;20058;-77
2022/04/30 07:23:59;;;;;;;12.98;7.53;;;;;;;;;;4990401;28;20145;-75
2022/04/30 07:26:26;;;;;;;14.93;7.47;;;;;;;;;;5011399;28;20060;-76
2022/04/30 07:28:52;;;;;;;11.05;7.70;;;;;;;;;;4978988;28;20108;-75
2022/04/30 07:31:18;;;;;;;13.18;8.40;;;;;;;;;;4992850;28;20085;-75
2022/04/30 07:33:45;;;;;;;15.30;8.60;;;;;;;;;;4987218;28;20283;-75
2022/04/30 07:36:11;;;;;;;11.73;8.40;;;;;;;;;;4978508;28;20046;-75
2022/04/30 07:38:37;;;;;;;18.63;8.88;;;;;;;;;;4990660;28;20053;-78
2022/04/30 07:41:03;;;;;;;11.10;7.50;;;;;;;;;;4986303;28;20057;-75
2022/04/30 07:43:29;;;;;;;17.58;9.20;;;;;;;;;;4999660;28;20452;-76
2022/04/30 07:45:55;;;;;;;13.13;7.18;;;;;;;;;;4991599;28;20053;-75
2022/04/30 07:48:21;;;;;;;12.07;5.88;;;;;;;;;;4993587;28;20045;-76
2022/04/30 07:50:48;;;;;;;8.48;6.05;;;;;;;;;;4992700;28;20041;-76
2022/04/30 07:53:14;;;;;;;8.38;5.55;;;;;;;;;;4961327;28;20039;-75
2022/04/30 07:55:41;;;;;;;12.13;6.35;;;;;;;;;;4980983;28;20103;-75
2022/04/30 07:58:07;;;;;;;9.60;5.43;;;;;;;;;;4987529;28;20053;-75
2022/04/30 08:00:33;;;;;;;9.73;5.60;;;;;;;;;;4994779;28;20076;-76
2022/04/30 08:03:00;;;;;;;9.48;5.55;;;;;;;;;;4994878;28;20062;-77
2022/04/30 08:05:26;;;;;;;9.93;6.43;;;;;;;;;;4977802;28;20061;-76
2022/04/30 08:07:54;;;;;;;11.05;5.95;;;;;;;;;;4994074;28;20081;-76
2022/04/30 08:10:20;;;;;;;8.48;5.88;;;;;;;;;;4994354;28;20515;-76
2022/04/30 08:12:46;;;;;;;12.63;6.57;;;;;;;;;;4994064;28;20053;-76
2022/04/30 08:15:13;;;;;;;6.20;5.20;;;;;;;;;;4991092;28;20788;-75
2022/04/30 08:17:39;;;;;;;8.80;5.10;;;;;;;;;;4990262;28;20442;-76
2022/04/30 08:20:08;;;;;;;7.40;4.75;;;;;;;;;;4977033;28;20426;-75
2022/04/30 08:22:34;;;;;;;6.60;4.63;;;;;;;;;;4957765;28;20865;-76
2022/04/30 08:25:01;;;;;;;7.05;4.25;;;;;;;;;;5004580;28;20973;-76
2022/04/30 08:27:27;;;;;;;6.97;4.32;;;;;;;;;;4991249;28;20444;-75
2022/04/30 08:29:53;;;;;;;5.10;3.92;;;;;;;;;;4992110;28;20865;-75
2022/04/30 08:32:23;;;;;;;6.03;4.82;;;;;;;;;;4976744;28;20800;-76
2022/04/30 08:34:50;;;;;;;8.18;4.70;;;;;;;;;;4992635;28;20474;-79
2022/04/30 08:37:16;;;;;;;6.90;4.43;;;;;;;;;;4974694;28;20789;-76
2022/04/30 08:39:43;;;;;;;5.82;4.45;;;;;;;;;;4992760;28;20448;-76
2022/04/30 08:42:09;;;;;;;8.18;4.20;;;;;;;;;;4985215;28;20492;-78
2022/04/30 08:44:38;;;;;;;6.22;3.55;;;;;;;;;;4959867;28;20490;-76
2022/04/30 08:47:04;;;;;;;7.22;3.70;;;;;;;;;;4977791;28;20944;-76
2022/04/30 08:49:34;;;;;;;6.87;4.00;;;;;;;;;;4990671;28;20580;-80
2022/04/30 08:52:00;;;;;;;5.38;3.80;;;;;;;;;;4992591;28;20507;-76
2022/04/30 08:54:26;;;;;;;4.95;3.53;;;;;;;;;;4976067;28;20444;-76
2022/04/30 08:56:56;;;;;;;5.85;3.83;;;;;;;;;;4973643;28;20511;-77
2022/04/30 08:59:23;;;;;;;8.23;4.30;;;;;;;;;;5004839;28;20443;-76
2022/04/30 09:01:50;;;;;;;5.38;4.15;;;;;;;;;;4987652;28;20434;-76
2022/04/30 09:04:16;;;;;;;6.72;4.03;;;;;;;;;;4982864;28;20440;-76
2022/04/30 09:06:46;;;;;;;5.63;4.35;;;;;;;;;;4972362;28;20464;-76
2022/04/30 09:09:20;;;;;;;6.85;4.53;;;;;;;;;;4992500;28;20428;-76
2022/04/30 09:11:47;;;;;;;5.30;4.45;;;;;;;;;;4991623;28;20432;-76
2022/04/30 09:14:13;;;;;;;6.65;4.40;;;;;;;;;;4977604;28;20802;-75
2022/04/30 09:16:39;;;;;;;7.45;4.88;;;;;;;;;;4988334;28;20483;-81
2022/04/30 09:19:05;;;;;;;6.05;4.75;;;;;;;;;;4977304;28;20512;-75
2022/04/30 09:21:31;;;;;;;6.23;4.50;;;;;;;;;;4986855;28;20448;-76
2022/04/30 09:24:04;;;;;;;6.32;4.28;;;;;;;;;;4994491;28;20465;-76
2022/04/30 09:26:40;;;;;;;7.63;4.45;;;;;;;;;;5011770;28;20428;-76
2022/04/30 09:29:21;;;;;;;7.50;4.40;;;;;;;;;;4963939;28;20460;-76
2022/04/30 09:31:51;;;;;;;7.50;4.70;;;;;;;;;;4992883;28;20454;-75
2022/04/30 09:39:48;;;;;;;6.32;4.50;;;;;;;;;;4999493;28;20434;-76
2022/04/30 09:42:14;;;;;;;5.90;4.18;;;;;;;;;;5005983;28;20431;-76
2022/04/30 09:44:40;;;;;;;6.75;4.78;;;;;;;;;;4995717;28;20910;-75
2022/04/30 09:47:07;;;;;;;7.63;4.68;;;;;;;;;;5012921;28;20428;-75
2022/04/30 09:55:07;;;;;;;7.75;4.78;;;;;;;;;;4994121;28;20912;-75
2022/04/30 09:57:36;;;;;;;6.93;4.78;;;;;;;;;;4990999;28;20425;-74
2022/04/30 10:00:03;;;;;;;6.35;5.20;;;;;;;;;;4996210;28;20480;-74
2022/04/30 10:02:31;;;;;;;7.68;5.35;;;;;;;;;;4988053;28;20464;-75
2022/04/30 10:04:58;;;;;;;8.60;5.45;;;;;;;;;;5003840;28;20457;-75
2022/04/30 10:07:25;;;;;;;9.70;5.43;;;;;;;;;;4979543;28;20940;-75
2022/04/30 10:10:14;;;;;;;8.40;5.22;;;;;;;;;;4984889;28;20433;-75
2022/04/30 10:12:46;;;;;;;10.52;5.93;;;;;;;;;;4983614;28;20475;-75
2022/04/30 10:15:30;;;;;;;8.77;5.60;;;;;;;;;;4978972;28;20519;-79
2022/04/30 10:17:58;;;;;;;7.43;5.40;;;;;;;;;;4988698;28;20523;-76
2022/04/30 10:20:29;;;;;;;8.27;5.40;;;;;;;;;;4963036;28;20437;-76
2022/04/30 10:22:57;;;;;;;8.50;5.63;;;;;;;;;;4993238;28;20432;-75
2022/04/30 10:25:42;;;;;;;9.73;6.33;;;;;;;;;;5000785;28;20455;-77
2022/04/30 10:28:11;;;;;;;9.05;5.45;;;;;;;;;;4979740;28;20572;-75
2022/04/30 10:30:38;;;;;;;10.23;5.43;;;;;;;;;;5010705;28;20471;-80
2022/04/30 10:33:07;;;;;;;6.70;5.40;;;;;;;;;;4994667;28;20519;-75
2022/04/30 10:35:34;;;;;;;9.70;6.03;;;;;;;;;;4993700;28;20455;-75
2022/04/30 10:38:08;;;;;;;9.63;5.70;;;;;;;;;;4993783;28;20428;-76
2022/04/30 10:40:38;;;;;;;8.07;5.10;;;;;;;;;;4967610;28;21051;-75
2022/04/30 10:43:13;;;;;;;8.02;5.60;;;;;;;;;;4990140;28;20951;-79
2022/04/30 10:45:39;;;;;;;9.32;5.30;;;;;;;;;;4984910;28;20448;-75
2022/04/30 10:48:05;;;;;;;10.23;5.68;;;;;;;;;;5001453;28;20822;-75
2022/04/30 10:50:31;;;;;;;9.20;5.35;;;;;;;;;;4991952;28;20460;-75
2022/04/30 10:53:00;;;;;;;8.07;5.28;;;;;;;;;;4993377;28;20439;-75
2022/04/30 10:55:26;;;;;;;9.30;5.50;;;;;;;;;;5010865;28;20432;-75
2022/04/30 10:57:53;;;;;;;8.77;5.45;;;;;;;;;;5009815;28;20797;-75
2022/04/30 11:00:21;;;;;;;10.40;5.50;;;;;;;;;;4995499;28;20471;-75
2022/04/30 11:02:47;;;;;;;11.82;5.60;;;;;;;;;;4993328;28;20436;-76
2022/04/30 11:05:24;;;;;;;9.07;5.70;;;;;;;;;;4990936;28;20497;-75
2022/04/30 11:07:51;;;;;;;13.25;5.95;;;;;;;;;;4991406;28;20761;-76
2022/04/30 11:10:17;;;;;;;8.85;5.47;;;;;;;;;;5011995;28;20428;-77
2022/04/30 11:12:44;;;;;;;10.35;6.28;;;;;;;;;;4991735;28;20490;-77
2022/04/30 11:15:11;;;;;;;10.35;6.30;;;;;;;;;;4962750;28;20440;-75
2022/04/30 11:17:47;;;;;;;11.30;6.57;;;;;;;;;;4994461;28;20436;-79
2022/04/30 11:20:23;;;;;;;8.80;5.75;;;;;;;;;;4960067;28;20886;-76
2022/04/30 11:23:00;;;;;;;9.07;6.57;;;;;;;;;;4962133;28;20494;-77
2022/04/30 11:25:33;;;;;;;9.90;6.53;;;;;;;;;;4973029;28;20448;-75
2022/04/30 11:28:00;;;;;;;10.77;6.25;;;;;;;;;;4964258;28;20427;-76
2022/04/30 11:30:26;;;;;;;12.13;6.82;;;;;;;;;;4995047;28;20511;-75
2022/04/30 11:32:52;;;;;;;11.32;6.90;;;;;;;;;;4990054;28;20465;-77
2022/04/30 11:35:19;;;;;;;12.15;6.90;;;;;;;;;;4958124;28;20434;-75
2022/04/30 11:37:45;;;;;;;11.35;7.35;;;;;;;;;;4990184;28;20440;-76
2022/04/30 11:40:12;;;;;;;11.82;6.82;;;;;;;;;;4978199;28;20520;-75
2022/04/30 11:42:38;;;;;;;11.65;7.65;;;;;;;;;;4984617;28;20440;-75
2022/04/30 11:45:05;;;;;;;10.03;6.83;;;;;;;;;;4977606;28;20432;-75
2022/04/30 11:47:32;;;;;;;10.45;6.65;;;;;;;;;;4984492;28;20428;-75
2022/04/30 11:50:08;;;;;;;13.70;7.23;;;;;;;;;;4993727;28;20433;-75
2022/04/30 11:52:35;;;;;;;10.38;7.53;;;;;;;;;;4992630;28;20436;-75
2022/04/30 11:55:03;;;;;;;13.18;7.70;;;;;;;;;;4992810;28;20932;-75
2022/04/30 11:57:29;;;;;;;11.90;7.80;;;;;;;;;;4993301;28;20432;-76
2022/04/30 11:59:56;;;;;;;11.93;7.17;;;;;;;;;;4961275;28;20972;-75
2022/04/30 12:02:22;;;;;;;9.38;6.78;;;;;;;;;;4976903;28;20428;-75
2022/04/30 12:04:50;;;;;;;13.13;6.37;;;;;;;;;;4993333;28;20417;-78
2022/04/30 12:07:16;;;;;;;11.05;6.32;;;;;;;;;;4992641;28;20834;-77
2022/04/30 12:09:47;;;;;;;9.60;5.93;;;;;;;;;;4978310;28;20801;-75
2022/04/30 12:12:17;;;;;;;9.80;6.40;;;;;;;;;;4992599;28;20489;-81
2022/04/30 12:14:48;;;;;;;9.07;6.43;;;;;;;;;;5010551;28;20489;-76
2022/04/30 12:17:14;;;;;;;11.48;6.38;;;;;;;;;;4992677;28;20431;-75
2022/04/30 12:25:17;;;;;;;10.60;6.07;;;;;;;;;;4976262;28;20497;-75
2022/04/30 12:27:52;;;;;;;9.23;6.35;;;;;;;;;;4991542;28;20469;-75
2022/04/30 12:30:20;;;;;;;11.60;6.35;;;;;;;;;;4996516;28;20442;-75
2022/04/30 12:33:04;;;;;;;8.63;6.38;;;;;;;;;;4991716;28;20426;-75
2022/04/30 12:35:30;;;;;;;9.93;6.18;;;;;;;;;;4990559;28;20445;-75
2022/04/30 12:38:03;;;;;;;8.45;6.25;;;;;;;;;;4969061;28;20919;-77
2022/04/30 12:40:29;;;;;;;9.15;6.88;;;;;;;;;;4992724;28;20437;-75
2022/04/30 12:42:55;;;;;;;10.57;6.80;;;;;;;;;;4974207;28;20829;-75
2022/04/30 12:45:21;;;;;;;12.23;7.20;;;;;;;;;;4993588;28;20416;-75
2022/04/30 12:47:49;;;;;;;12.87;6.87;;;;;;;;;;4991667;28;20472;-76
2022/04/30 12:50:15;;;;;;;9.30;6.35;;;;;;;;;;4993224;28;20504;-75
2022/04/30 12:52:41;;;;;;;9.63;6.95;;;;;;;;;;4961277;28;20519;-75
2022/04/30 12:55:07;;;;;;;9.85;6.78;;;;;;;;;;4992384;28;20950;-75
2022/04/30 12:57:33;;;;;;;11.13;7.30;;;;;;;;;;4979453;28;20443;-75
2022/04/30 13:00:00;;;;;;;8.68;6.40;;;;;;;;;;4978873;28;20958;-76
2022/04/30 13:02:28;;;;;;;9.20;6.78;;;;;;;;;;4990817;28;20910;-75
2022/04/30 13:04:54;;;;;;;8.98;5.78;;;;;;;;;;4978019;28;20420;-76
2022/04/30 13:07:20;;;;;;;8.15;5.20;;;;;;;;;;4967759;28;20538;-75
2022/04/30 13:15:16;;;;;;;8.07;5.50;;;;;;;;;;4998638;28;20510;-75
2022/04/30 13:17:42;;;;;;;9.38;6.00;;;;;;;;;;5006222;28;20426;-75
2022/04/30 13:20:10;;;;;;;7.97;5.10;;;;;;;;;;4992208;28;20456;-74
2022/04/30 13:22:37;;;;;;;9.38;5.40;;;;;;;;;;4963397;28;20426;-75
2022/04/30 13:25:04;;;;;;;8.60;5.78;;;;;;;;;;4998599;28;20435;-76
2022/04/30 13:27:31;;;;;;;11.27;6.10;;;;;;;;;;4999607;28;20428;-75
2022/04/30 13:29:57;;;;;;;8.75;5.93;;;;;;;;;;4981594;28;20934;-76
2022/04/30 13:32:23;;;;;;;10.10;5.82;;;;;;;;;;4982165;28;20424;-75
2022/04/30 13:34:49;;;;;;;10.50;6.22;;;;;;;;;;4998472;28;20502;-75
2022/04/30 13:37:15;;;;;;;10.45;6.38;;;;;;;;;;4993320;28;20440;-75
2022/04/30 13:39:41;;;;;;;8.75;6.13;;;;;;;;;;4991801;28;20428;-75
2022/04/30 13:42:08;;;;;;;8.43;5.93;;;;;;;;;;5014708;28;20419;-75
2022/04/30 13:44:34;;;;;;;10.43;6.32;;;;;;;;;;4976113;28;20440;-75
2022/04/30 13:47:00;;;;;;;10.55;6.55;;;;;;;;;;4964250;28;20515;-75
2022/04/30 13:49:27;;;;;;;12.55;6.53;;;;;;;;;;4999615;28;20551;-75
2022/04/30 13:51:53;;;;;;;8.82;6.50;;;;;;;;;;4979792;28;20456;-75
2022/04/30 13:54:19;;;;;;;10.48;6.30;;;;;;;;;;4999291;28;20440;-75
2022/04/30 13:56:45;;;;;;;8.95;6.22;;;;;;;;;;4982596;28;20428;-75
2022/04/30 13:59:13;;;;;;;11.48;6.50;;;;;;;;;;4981656;28;20646;-75
2022/04/30 14:01:39;;;;;;;10.23;6.47;;;;;;;;;;4999011;28;20432;-75
2022/04/30 14:04:05;;;;;;;9.38;7.00;;;;;;;;;;4999202;28;20436;-75
2022/04/30 14:06:31;;;;;;;9.95;7.43;;;;;;;;;;4953910;28;20430;-75
2022/04/30 14:08:58;;;;;;;13.90;7.70;;;;;;;;;;4964538;28;20432;-76
2022/04/30 14:11:24;;;;;;;9.52;7.07;;;;;;;;;;4989663;28;20434;-75
2022/04/30 14:16:34;;;;;;;9.48;7.22;;;;;;;;;;4995540;28;20475;-75
2022/04/30 14:19:01;;;;;;;9.73;7.00;;;;;;;;;;4993413;28;20557;-75
2022/04/30 14:21:27;;;;;;;10.23;7.00;;;;;;;;;;4993829;28;20432;-75
2022/04/30 14:23:53;;;;;;;8.15;6.57;;;;;;;;;;4990079;28;20473;-74
2022/04/30 14:26:19;;;;;;;9.27;5.93;;;;;;;;;;4986531;28;20437;-74
2022/04/30 14:28:45;;;;;;;8.50;6.00;;;;;;;;;;4977660;28;20432;-74
2022/04/30 14:31:14;;;;;;;8.70;5.82;;;;;;;;;;4978496;28;20435;-74
2022/04/30 14:33:40;;;;;;;7.97;5.68;;;;;;;;;;5012036;28;20435;-75
2022/04/30 14:36:10;;;;;;;9.20;6.03;;;;;;;;;;4977216;28;20437;-74
2022/04/30 14:38:39;;;;;;;10.00;6.25;;;;;;;;;;4977915;28;20428;-74
2022/04/30 14:41:07;;;;;;;9.45;6.00;;;;;;;;;;4987107;28;20765;-74
2022/04/30 14:43:34;;;;;;;7.60;5.93;;;;;;;;;;5003905;28;20919;-74
2022/04/30 14:46:02;;;;;;;10.02;5.90;;;;;;;;;;4988350;28;20909;-74
2022/04/30 14:48:29;;;;;;;9.60;6.15;;;;;;;;;;4977358;28;20432;-74
2022/04/30 14:50:55;;;;;;;9.00;5.68;;;;;;;;;;4971859;28;20527;-81
2022/04/30 14:53:21;;;;;;;7.50;6.30;;;;;;;;;;4979653;28;20433;-74
2022/04/30 14:55:49;;;;;;;9.60;6.18;;;;;;;;;;4946707;28;20482;-74
2022/04/30 14:58:15;;;;;;;10.82;6.30;;;;;;;;;;4976486;28;20911;-74
2022/04/30 15:00:42;;;;;;;7.90;5.40;;;;;;;;;;4956159;28;20422;-77
2022/04/30 15:03:09;;;;;;;7.90;5.38;;;;;;;;;;4978634;28;20472;-74
2022/04/30 15:05:35;;;;;;;8.80;5.80;;;;;;;;;;4979090;28;20835;-74
2022/04/30 15:08:02;;;;;;;7.45;5.40;;;;;;;;;;4973385;28;20750;-79
2022/04/30 15:10:28;;;;;;;8.65;6.00;;;;;;;;;;4994234;28;20464;-75
2022/04/30 15:12:54;;;;;;;8.13;5.32;;;;;;;;;;4994271;28;20424;-74
2022/04/30 15:15:20;;;;;;;8.38;5.22;;;;;;;;;;4978818;28;20428;-75
2022/04/30 15:17:46;;;;;;;6.80;4.95;;;;;;;;;;4993321;28;20433;-74
2022/04/30 15:20:12;;;;;;;8.07;5.10;;;;;;;;;;4987690;28;20432;-74
2022/04/30 15:22:38;;;;;;;7.63;5.28;;;;;;;;;;4976966;28;20449;-75
2022/04/30 15:25:05;;;;;;;7.47;5.50;;;;;;;;;;4986230;28;20635;-75
2022/04/30 15:27:31;;;;;;;8.23;5.65;;;;;;;;;;4993101;28;20775;-74
2022/04/30 15:29:57;;;;;;;6.97;5.47;;;;;;;;;;4962158;28;20942;-74
2022/04/30 15:32:24;;;;;;;6.80;5.25;;;;;;;;;;4973710;28;20774;-75
2022/04/30 15:34:51;;;;;;;7.65;5.32;;;;;;;;;;4973479;28;20428;-75
2022/04/30 15:37:17;;;;;;;8.77;5.30;;;;;;;;;;4993296;28;20460;-76
2022/04/30 15:39:43;;;;;;;7.87;4.70;;;;;;;;;;4993371;28;20515;-76
2022/04/30 15:42:11;;;;;;;7.40;4.80;;;;;;;;;;4993086;28;20433;-75
2022/04/30 15:44:38;;;;;;;6.85;4.50;;;;;;;;;;4963058;28;20511;-75
2022/04/30 15:52:34;;;;;;;7.25;4.85;;;;;;;;;;4992187;28;20425;-76
2022/04/30 15:55:00;;;;;;;7.20;4.80;;;;;;;;;;4978068;28;20444;-80
2022/04/30 15:57:26;;;;;;;6.75;4.78;;;;;;;;;;5010705;28;20440;-75
2022/04/30 15:59:53;;;;;;;6.90;4.90;;;;;;;;;;4999404;28;20414;-75
2022/04/30 16:02:21;;;;;;;7.57;5.00;;;;;;;;;;4949079;28;20426;-75
2022/04/30 16:04:48;;;;;;;6.88;5.35;;;;;;;;;;5006803;28;20429;-75
2022/04/30 16:07:14;;;;;;;9.30;5.22;;;;;;;;;;4976214;28;20420;-75
2022/04/30 16:09:40;;;;;;;8.15;5.20;;;;;;;;;;4992428;28;20536;-75
2022/04/30 16:12:07;;;;;;;7.43;4.90;;;;;;;;;;4977297;28;20515;-74
2022/04/30 16:14:34;;;;;;;8.15;5.25;;;;;;;;;;4991650;28;20516;-75